Decoded Metar for KDVN (DAVENPORT/QUAD C in IA, USA) (IATA:DVN) | Meteo·Mobile Aviation Weather
aviador You're here:

KDVN Decoded Metar

DAVENPORT/QUAD C in IA, USA
Report Time2019-03-22 09:52:00
UTC Time2019-03-22 10:10:48
Flight Rules vfr VFR
Wind300° at 06 kt
W.Decomp.*RWY 33: 5.1 kt HW 3.1 kt LCW
RWY 21: 0.1 kt HW 6.0 kt RCW
W.Rank300° ranks 2
Current wind is below 300° avg. (10.5)
Visibility9999 m
Phenomena:N/A
Clouds:N/A
Expected CloudBase > 800 ft AGL from Temp-Dew spread
CeilingNone
Temp01°C (ISA -13)
Dew Point-1°C (87% RH)
AAT-3.3°C
QNH1018 hPa
Density Alt-856 ft
Elevation755 ft
Report Wrong Elevation
Raw Report
KDVN 220952Z AUTO 30006KT 8SM CLR 01/M01 A3005 RMK AO2 SLP178
T00111006=

Extra information for KDVN:More info

Metar Taf Metar & Taf Last 4 Metars F.Rules Stats Wind Profile Meteogram Temp Stats Airport Information Weather charts Add Link Nearby VenuesMetar ALERT Operation Metar Decoded Social comments

AIRNAV info for KDVN